createdAt,value
2017-09-30T00:01:55.955Z,64.71
2017-09-30T00:04:23.561Z,65.45
2017-09-30T00:06:51.165Z,65.17
2017-09-30T00:09:18.812Z,65.42
2017-09-30T00:11:46.701Z,65.71
2017-09-30T00:14:14.285Z,65.67
2017-09-30T00:16:41.897Z,65.34
2017-09-30T00:19:09.475Z,65.71
2017-09-30T00:21:37.100Z,65.90
2017-09-30T00:24:04.695Z,66.10
2017-09-30T00:26:32.287Z,65.86
2017-09-30T00:29:00.345Z,65.43
2017-09-30T00:31:27.928Z,65.80
2017-09-30T00:33:55.565Z,65.89
2017-09-30T00:36:23.437Z,66.24
2017-09-30T00:38:51.305Z,66.83
2017-09-30T00:41:18.916Z,66.23
2017-09-30T00:43:46.495Z,65.96
2017-09-30T00:46:14.395Z,65.83
2017-09-30T00:48:41.987Z,66.40
2017-09-30T00:51:09.836Z,66.60
2017-09-30T00:53:37.454Z,66.49
2017-09-30T00:56:05.040Z,67.02
2017-09-30T00:58:32.664Z,66.95
2017-09-30T01:01:00.260Z,67.06
2017-09-30T01:03:27.855Z,67.21
2017-09-30T01:05:55.467Z,67.02
2017-09-30T01:08:23.060Z,66.84
2017-09-30T01:10:50.716Z,67.17
2017-09-30T01:13:18.296Z,67.41
2017-09-30T01:15:45.901Z,67.59
2017-09-30T01:18:13.517Z,67.77
2017-09-30T01:20:41.109Z,67.70
2017-09-30T01:23:08.739Z,68.07
2017-09-30T01:25:36.596Z,68.39
2017-09-30T01:28:04.179Z,67.91
2017-09-30T01:30:31.804Z,68.16
2017-09-30T01:32:59.423Z,68.34
2017-09-30T01:35:27.452Z,68.12
2017-09-30T01:37:55.434Z,68.08
2017-09-30T01:40:23.023Z,68.54
2017-09-30T01:42:50.657Z,68.62
2017-09-30T01:45:18.236Z,68.54
2017-09-30T01:47:45.859Z,68.79
2017-09-30T01:50:13.449Z,68.48
2017-09-30T01:52:41.090Z,68.69
2017-09-30T01:55:08.724Z,69.01
2017-09-30T01:57:36.330Z,68.90
2017-09-30T02:00:03.928Z,68.87
2017-09-30T02:02:31.552Z,69.35
2017-09-30T02:04:59.409Z,69.20
2017-09-30T02:07:27.009Z,69.39
2017-09-30T02:09:54.633Z,69.36
2017-09-30T02:12:22.212Z,69.29
2017-09-30T02:14:50.037Z,69.63
2017-09-30T02:17:17.665Z,69.48
2017-09-30T02:19:45.280Z,69.49
2017-09-30T02:22:12.892Z,69.56
2017-09-30T02:24:40.529Z,69.54
2017-09-30T02:27:08.114Z,69.92
2017-09-30T02:29:35.715Z,69.36
2017-09-30T02:32:03.354Z,69.69
2017-09-30T02:34:30.944Z,69.89
2017-09-30T02:36:58.528Z,70.06
2017-09-30T02:39:26.165Z,70.32
2017-09-30T02:41:53.745Z,70.09
2017-09-30T02:44:21.613Z,70.07
2017-09-30T02:46:49.244Z,70.51
2017-09-30T02:49:16.833Z,70.38
2017-09-30T02:51:44.420Z,70.64
2017-09-30T02:54:12.044Z,70.41
2017-09-30T02:56:39.926Z,70.38
2017-09-30T02:59:07.525Z,70.57
2017-09-30T03:01:35.148Z,70.64
2017-09-30T03:04:02.739Z,70.81
2017-09-30T03:06:30.328Z,70.62
2017-09-30T03:08:57.960Z,70.78
2017-09-30T03:11:25.547Z,70.71
2017-09-30T03:13:53.136Z,71.00
2017-09-30T03:16:21.028Z,71.23
2017-09-30T03:18:48.626Z,71.11
2017-09-30T03:21:16.217Z,71.08
2017-09-30T03:23:43.852Z,71.13
2017-09-30T03:26:11.444Z,71.04
2017-09-30T03:28:39.028Z,71.29
2017-09-30T03:31:06.653Z,71.27
2017-09-30T03:33:34.241Z,71.27
2017-09-30T03:36:01.853Z,71.36
2017-09-30T03:38:29.475Z,71.63
2017-09-30T03:40:57.065Z,71.80
2017-09-30T03:43:24.908Z,71.78
2017-09-30T03:45:52.536Z,71.99
2017-09-30T03:48:20.152Z,72.05
2017-09-30T03:50:47.764Z,72.15
2017-09-30T03:53:15.396Z,72.17
2017-09-30T03:55:42.980Z,72.25
2017-09-30T03:58:10.576Z,72.28
2017-09-30T04:00:38.188Z,72.25
2017-09-30T04:03:05.777Z,72.14
2017-09-30T04:05:33.351Z,72.11
2017-09-30T04:08:00.968Z,72.39
2017-09-30T04:10:28.564Z,72.53
2017-09-30T04:12:56.154Z,72.61
2017-09-30T04:15:23.805Z,72.84
2017-09-30T04:17:51.399Z,72.96
2017-09-30T04:20:18.991Z,72.95
2017-09-30T04:22:46.613Z,72.94
2017-09-30T04:25:14.186Z,73.16
2017-09-30T04:27:41.764Z,73.10
2017-09-30T04:30:09.409Z,72.84
2017-09-30T04:32:37.033Z,72.91
2017-09-30T04:35:04.921Z,72.89
2017-09-30T04:37:32.541Z,73.22
2017-09-30T04:40:00.140Z,73.22
2017-09-30T04:42:27.724Z,73.37
2017-09-30T04:44:55.362Z,73.33
2017-09-30T04:47:23.030Z,73.18
2017-09-30T04:49:50.615Z,73.18
2017-09-30T04:52:18.253Z,73.18
2017-09-30T04:54:45.845Z,73.08
2017-09-30T04:57:13.423Z,73.56
2017-09-30T04:59:41.057Z,73.76
2017-09-30T05:02:08.909Z,73.99
2017-09-30T05:04:36.573Z,73.89
2017-09-30T05:07:04.192Z,73.75
2017-09-30T05:09:32.097Z,73.46
2017-09-30T05:11:59.705Z,73.69
2017-09-30T05:14:27.349Z,73.69
2017-09-30T05:16:54.940Z,73.71
2017-09-30T05:19:22.537Z,73.74
2017-09-30T05:21:50.159Z,73.78
2017-09-30T05:24:17.745Z,73.80
2017-09-30T05:26:45.343Z,73.89
2017-09-30T05:29:13.000Z,73.95
2017-09-30T05:31:40.596Z,73.87
2017-09-30T05:34:08.210Z,74.13
2017-09-30T05:36:35.842Z,74.07
2017-09-30T05:39:03.455Z,74.05
2017-09-30T05:41:31.041Z,73.84
2017-09-30T05:43:58.664Z,74.11
2017-09-30T05:46:26.243Z,74.28
2017-09-30T05:48:53.862Z,74.07
2017-09-30T05:51:21.481Z,74.33
2017-09-30T05:53:49.116Z,74.20
2017-09-30T05:56:16.703Z,74.11
2017-09-30T05:58:44.336Z,74.28
2017-09-30T06:01:11.920Z,74.35
2017-09-30T06:03:39.512Z,74.37
2017-09-30T06:06:07.134Z,73.79
2017-09-30T06:08:34.990Z,74.03
2017-09-30T06:11:02.566Z,74.28
2017-09-30T06:13:30.195Z,74.23
2017-09-30T06:15:57.798Z,73.98
2017-09-30T06:18:25.642Z,73.92
2017-09-30T06:20:53.280Z,74.16
2017-09-30T06:23:20.894Z,73.74
2017-09-30T06:25:48.477Z,73.61
2017-09-30T06:28:16.100Z,73.67
2017-09-30T06:30:43.956Z,73.48
2017-09-30T06:33:11.541Z,73.67
2017-09-30T06:35:39.176Z,73.73
2017-09-30T06:38:07.045Z,73.83
2017-09-30T06:40:34.629Z,73.61
2017-09-30T06:43:02.249Z,73.67
2017-09-30T06:45:29.837Z,73.68
2017-09-30T06:47:57.414Z,73.66
2017-09-30T06:50:25.052Z,73.43
2017-09-30T06:52:52.671Z,73.22
2017-09-30T06:55:20.251Z,72.37
2017-09-30T06:57:47.874Z,72.39
2017-09-30T07:00:15.472Z,72.07
2017-09-30T07:02:43.068Z,71.09
2017-09-30T07:05:10.693Z,70.16
2017-09-30T07:07:38.288Z,69.84
2017-09-30T07:10:08.008Z,69.13
2017-09-30T07:12:35.645Z,68.70
2017-09-30T07:15:03.270Z,68.59
2017-09-30T07:17:30.875Z,68.44
2017-09-30T07:19:58.551Z,69.12
2017-09-30T07:22:26.132Z,69.27
2017-09-30T07:24:53.718Z,69.15
2017-09-30T07:27:21.637Z,69.37
2017-09-30T07:29:49.224Z,68.92
2017-09-30T07:32:16.811Z,68.57
2017-09-30T07:34:44.736Z,69.02
2017-09-30T07:37:12.374Z,68.97
2017-09-30T07:39:39.967Z,68.30
2017-09-30T07:42:07.621Z,68.68
2017-09-30T07:44:35.283Z,68.22
2017-09-30T07:47:02.869Z,67.32
2017-09-30T07:49:30.808Z,66.88
2017-09-30T07:51:58.409Z,66.54
2017-09-30T07:54:26.004Z,66.66
2017-09-30T07:56:53.625Z,66.49
2017-09-30T07:59:21.206Z,65.45
2017-09-30T08:01:48.794Z,65.36
2017-09-30T08:04:16.436Z,64.77
2017-09-30T08:06:44.032Z,64.98
2017-09-30T08:09:11.917Z,65.29
2017-09-30T08:11:39.540Z,64.86
2017-09-30T08:14:07.129Z,64.86
2017-09-30T08:16:34.712Z,63.96
2017-09-30T08:19:02.667Z,63.55
2017-09-30T08:21:30.247Z,63.86
2017-09-30T08:23:58.102Z,64.75
2017-09-30T08:26:25.720Z,63.99
2017-09-30T08:28:53.324Z,63.33
2017-09-30T08:31:21.189Z,62.54
2017-09-30T08:33:48.807Z,61.88
2017-09-30T08:36:16.412Z,60.52
2017-09-30T08:38:44.001Z,60.65
2017-09-30T08:41:11.627Z,60.68
2017-09-30T08:43:39.235Z,60.08
2017-09-30T08:46:06.812Z,59.63
2017-09-30T08:48:34.445Z,58.77
2017-09-30T08:51:02.033Z,57.82
2017-09-30T08:53:29.859Z,57.66
2017-09-30T08:55:57.517Z,56.76
2017-09-30T08:58:25.348Z,56.49
2017-09-30T09:00:53.248Z,55.08
2017-09-30T09:03:20.866Z,53.56
2017-09-30T09:05:48.484Z,52.74
2017-09-30T09:08:16.069Z,52.33
2017-09-30T09:10:43.686Z,51.47
2017-09-30T09:13:11.278Z,50.79
2017-09-30T09:15:38.877Z,50.61
2017-09-30T09:18:06.499Z,49.04
2017-09-30T09:20:34.108Z,48.88
2017-09-30T09:23:01.696Z,48.76
2017-09-30T09:25:29.317Z,49.99
2017-09-30T09:27:57.229Z,51.32
2017-09-30T09:30:24.816Z,52.73
2017-09-30T09:32:52.724Z,53.38
2017-09-30T09:35:20.324Z,53.13
2017-09-30T09:37:47.925Z,52.97
2017-09-30T09:40:16.163Z,53.13
2017-09-30T09:42:44.032Z,53.26
2017-09-30T09:45:11.870Z,52.29
2017-09-30T09:47:39.768Z,53.01
2017-09-30T09:50:07.374Z,53.11
2017-09-30T09:52:34.973Z,52.81
2017-09-30T09:55:02.622Z,52.09
2017-09-30T09:57:30.218Z,52.85
2017-09-30T09:59:57.821Z,52.85
2017-09-30T10:02:25.451Z,52.36
2017-09-30T10:04:53.038Z,52.81
2017-09-30T10:07:20.632Z,53.54
2017-09-30T10:09:48.254Z,53.36
2017-09-30T10:12:15.847Z,51.79
2017-09-30T10:14:43.446Z,52.26
2017-09-30T10:17:11.104Z,51.66
2017-09-30T10:19:38.695Z,51.27
2017-09-30T10:22:06.288Z,50.09
2017-09-30T10:24:33.952Z,49.63
2017-09-30T10:27:01.554Z,49.60
2017-09-30T10:29:29.160Z,49.29
2017-09-30T10:31:56.813Z,49.27
2017-09-30T10:34:24.644Z,50.57
2017-09-30T10:36:52.275Z,51.13
2017-09-30T10:39:19.956Z,51.35
2017-09-30T10:41:47.551Z,51.55
2017-09-30T10:44:15.143Z,51.63
2017-09-30T10:46:43.113Z,51.84
2017-09-30T10:49:10.718Z,52.07
2017-09-30T10:51:38.313Z,50.85
2017-09-30T10:54:05.996Z,51.34
2017-09-30T10:56:33.588Z,50.99
2017-09-30T10:59:01.181Z,52.19
2017-09-30T11:01:28.818Z,50.87
2017-09-30T11:03:56.736Z,50.99
2017-09-30T11:06:24.365Z,51.43
2017-09-30T11:08:52.009Z,51.69
2017-09-30T11:11:19.608Z,52.10
2017-09-30T11:13:47.211Z,51.47
2017-09-30T11:16:14.841Z,51.32
2017-09-30T11:18:42.440Z,51.27
2017-09-30T11:21:10.023Z,51.43
2017-09-30T11:23:37.652Z,50.93
2017-09-30T11:26:05.574Z,51.32
2017-09-30T11:28:33.237Z,50.63
2017-09-30T11:31:00.871Z,50.04
2017-09-30T11:33:28.487Z,50.77
2017-09-30T11:35:56.128Z,50.50
2017-09-30T11:38:23.755Z,50.18
2017-09-30T11:40:51.345Z,49.57
2017-09-30T11:43:18.948Z,48.52
2017-09-30T11:45:46.886Z,48.37
2017-09-30T11:48:14.473Z,48.56
2017-09-30T11:50:42.060Z,48.79
2017-09-30T11:53:09.692Z,47.40
2017-09-30T11:55:37.280Z,46.55
2017-09-30T11:58:05.188Z,46.68
2017-09-30T12:00:33.160Z,46.51
2017-09-30T12:03:00.812Z,44.55
2017-09-30T12:05:28.404Z,42.65
2017-09-30T12:07:56.023Z,37.34
2017-09-30T12:10:23.617Z,33.92
2017-09-30T12:12:51.213Z,32.09
2017-09-30T12:15:18.846Z,29.60
2017-09-30T12:17:46.474Z,28.76
2017-09-30T12:20:14.074Z,29.85
2017-09-30T12:22:41.695Z,29.96
2017-09-30T12:25:09.334Z,31.12
2017-09-30T12:27:36.932Z,33.91
2017-09-30T12:30:04.604Z,36.18
2017-09-30T12:32:32.475Z,38.98
2017-09-30T12:37:33.867Z,42.39
2017-09-30T12:40:01.468Z,42.99
2017-09-30T12:42:29.060Z,44.06
2017-09-30T12:44:56.933Z,44.01
2017-09-30T12:47:24.517Z,44.23
2017-09-30T12:49:52.096Z,44.57
2017-09-30T12:52:19.724Z,45.08
2017-09-30T12:54:47.324Z,44.74
2017-09-30T12:57:14.911Z,44.51
2017-09-30T12:59:42.546Z,44.75
2017-09-30T13:02:10.142Z,44.90
2017-09-30T13:04:37.732Z,44.96
2017-09-30T13:07:05.377Z,45.54
2017-09-30T13:09:32.959Z,45.14
2017-09-30T13:12:00.578Z,45.07
2017-09-30T13:14:28.196Z,45.92
2017-09-30T13:16:55.769Z,44.88
2017-09-30T13:19:23.405Z,43.75
2017-09-30T13:21:51.036Z,44.27
2017-09-30T13:24:18.624Z,43.62
2017-09-30T13:26:46.229Z,44.19
2017-09-30T13:29:13.852Z,44.72
2017-09-30T13:31:41.437Z,44.38
2017-09-30T13:34:09.023Z,44.72
2017-09-30T13:36:36.643Z,44.59
2017-09-30T13:39:04.236Z,44.32
2017-09-30T13:41:31.824Z,44.42
2017-09-30T13:43:59.450Z,44.52
2017-09-30T13:46:27.077Z,42.84
2017-09-30T13:48:54.666Z,43.22
2017-09-30T13:51:22.605Z,42.94
2017-09-30T13:53:50.180Z,43.73
2017-09-30T13:56:17.775Z,42.50
2017-09-30T13:58:45.407Z,42.83
2017-09-30T14:01:13.011Z,43.70
2017-09-30T14:03:40.589Z,43.63
2017-09-30T14:06:08.207Z,43.19
2017-09-30T14:08:35.792Z,42.59
2017-09-30T14:11:03.380Z,43.19
2017-09-30T14:13:31.020Z,43.86
2017-09-30T14:15:58.625Z,43.29
2017-09-30T14:18:26.565Z,42.26
2017-09-30T14:20:54.564Z,41.72
2017-09-30T14:23:22.160Z,41.20
2017-09-30T14:25:49.826Z,41.79
2017-09-30T14:28:17.482Z,41.45
2017-09-30T14:30:45.080Z,42.09
2017-09-30T14:33:12.991Z,41.94
2017-09-30T14:35:40.614Z,42.51
2017-09-30T14:38:08.206Z,42.56
2017-09-30T14:40:35.793Z,41.56
2017-09-30T14:43:03.419Z,41.31
2017-09-30T14:45:31.296Z,41.52
2017-09-30T14:47:59.125Z,40.88
2017-09-30T14:50:27.026Z,41.05
2017-09-30T14:52:54.651Z,41.49
2017-09-30T14:55:22.231Z,41.78
2017-09-30T14:57:49.885Z,41.72
2017-09-30T15:00:17.476Z,41.94
2017-09-30T15:02:45.056Z,41.44
2017-09-30T15:05:13.009Z,41.63
2017-09-30T15:07:40.603Z,41.57
2017-09-30T15:10:08.183Z,41.64
2017-09-30T15:12:35.816Z,41.63
2017-09-30T15:15:03.440Z,41.50
2017-09-30T15:17:31.044Z,41.37
2017-09-30T15:19:58.683Z,41.73
2017-09-30T15:22:26.548Z,42.12
2017-09-30T15:24:54.197Z,41.40
2017-09-30T15:27:22.082Z,41.93
2017-09-30T15:29:49.676Z,42.39
2017-09-30T15:32:17.256Z,42.33
2017-09-30T15:34:44.894Z,42.61
2017-09-30T15:37:12.481Z,42.31
2017-09-30T15:39:40.111Z,42.52
2017-09-30T15:42:07.736Z,42.48
2017-09-30T15:44:35.345Z,42.68
2017-09-30T15:47:02.979Z,42.01
2017-09-30T15:49:30.617Z,41.99
2017-09-30T15:51:58.228Z,41.96
2017-09-30T15:54:25.838Z,42.09
2017-09-30T15:56:53.691Z,42.47
2017-09-30T15:59:21.305Z,42.59
2017-09-30T16:01:49.236Z,43.14
2017-09-30T16:04:16.916Z,43.64
2017-09-30T16:06:44.508Z,44.01
2017-09-30T16:09:12.119Z,44.25
2017-09-30T16:11:39.750Z,44.08
2017-09-30T16:14:07.683Z,44.35
2017-09-30T16:16:35.265Z,45.03
2017-09-30T16:19:02.897Z,45.03
2017-09-30T16:21:30.777Z,45.26
2017-09-30T16:23:58.645Z,45.28
2017-09-30T16:26:26.274Z,45.41
2017-09-30T16:28:53.865Z,45.29
2017-09-30T16:31:21.447Z,45.61
2017-09-30T16:33:49.096Z,46.33
2017-09-30T16:36:16.702Z,47.10
2017-09-30T16:38:44.623Z,47.85
2017-09-30T16:41:12.259Z,48.45
2017-09-30T16:43:39.846Z,49.23
2017-09-30T16:46:07.445Z,49.81
2017-09-30T16:48:35.066Z,50.37
2017-09-30T16:51:02.656Z,50.71
2017-09-30T16:53:30.267Z,51.11
2017-09-30T16:55:57.887Z,51.37
2017-09-30T16:58:25.716Z,51.47
2017-09-30T17:00:53.324Z,51.71
2017-09-30T17:03:21.256Z,51.91
2017-09-30T17:05:48.844Z,52.36
2017-09-30T17:08:16.429Z,52.34
2017-09-30T17:10:44.072Z,52.41
2017-09-30T17:13:11.668Z,52.65
2017-09-30T17:15:39.564Z,52.95
2017-09-30T17:18:07.179Z,52.99
2017-09-30T17:20:34.775Z,53.13
2017-09-30T17:23:02.363Z,53.17
2017-09-30T17:25:29.997Z,53.47
2017-09-30T17:27:57.620Z,53.59
2017-09-30T17:30:25.209Z,53.66
2017-09-30T17:32:52.892Z,53.88
2017-09-30T17:35:20.531Z,54.07
2017-09-30T17:37:48.472Z,54.10
2017-09-30T17:40:16.102Z,54.48
2017-09-30T17:42:44.000Z,54.60
2017-09-30T17:45:11.599Z,54.73
2017-09-30T17:47:39.224Z,54.65
2017-09-30T17:50:06.832Z,55.04
2017-09-30T17:52:34.421Z,55.01
2017-09-30T17:55:02.057Z,54.99
2017-09-30T17:57:29.658Z,55.25
2017-09-30T17:59:57.240Z,54.63
2017-09-30T18:02:24.880Z,54.40
2017-09-30T18:04:52.494Z,54.67
2017-09-30T18:07:20.384Z,54.51
2017-09-30T18:09:48.358Z,53.91
2017-09-30T18:12:15.991Z,54.31
2017-09-30T18:14:43.592Z,54.19
2017-09-30T18:17:11.216Z,54.19
2017-09-30T18:19:38.814Z,54.07
2017-09-30T18:22:06.395Z,54.25
2017-09-30T18:24:34.035Z,54.17
2017-09-30T18:27:01.615Z,54.00
2017-09-30T18:29:29.208Z,54.02
2017-09-30T18:31:56.840Z,54.00
2017-09-30T18:34:24.997Z,54.16
2017-09-30T18:36:52.601Z,53.67
2017-09-30T18:39:20.222Z,53.65
2017-09-30T18:41:47.817Z,53.79
2017-09-30T18:44:15.846Z,53.87
2017-09-30T18:46:44.146Z,53.73
2017-09-30T18:49:11.746Z,53.59
2017-09-30T18:51:39.345Z,53.85
2017-09-30T18:54:06.974Z,53.77
2017-09-30T18:56:34.625Z,53.13
2017-09-30T18:59:02.217Z,52.94
2017-09-30T19:01:29.843Z,53.60
2017-09-30T19:03:57.765Z,53.45
2017-09-30T19:06:25.349Z,53.35
2017-09-30T19:08:52.970Z,53.81
2017-09-30T19:11:20.852Z,54.00
2017-09-30T19:13:48.508Z,53.54
2017-09-30T19:16:16.148Z,53.65
2017-09-30T19:18:43.752Z,53.59
2017-09-30T19:21:11.384Z,53.69
2017-09-30T19:23:39.000Z,53.13
2017-09-30T19:26:06.635Z,53.15
2017-09-30T19:28:34.222Z,52.82
2017-09-30T19:31:01.843Z,52.73
2017-09-30T19:33:29.717Z,52.97
2017-09-30T19:35:57.324Z,52.43
2017-09-30T19:38:24.948Z,52.77
2017-09-30T19:40:52.543Z,52.54
2017-09-30T19:43:20.175Z,53.00
2017-09-30T19:45:47.805Z,53.23
2017-09-30T19:48:15.697Z,53.02
2017-09-30T19:50:43.287Z,52.67
2017-09-30T19:53:10.913Z,52.98
2017-09-30T19:55:38.499Z,53.29
2017-09-30T19:58:06.081Z,53.16
2017-09-30T20:00:33.704Z,52.97
2017-09-30T20:03:01.289Z,53.25
2017-09-30T20:05:28.871Z,53.35
2017-09-30T20:07:56.510Z,53.25
2017-09-30T20:10:24.108Z,53.29
2017-09-30T20:12:51.731Z,53.51
2017-09-30T20:15:19.685Z,53.48
2017-09-30T20:17:47.652Z,53.63
2017-09-30T20:20:15.282Z,53.64
2017-09-30T20:22:42.958Z,53.70
2017-09-30T20:25:10.579Z,53.56
2017-09-30T20:27:38.411Z,53.83
2017-09-30T20:30:06.044Z,54.18
2017-09-30T20:32:33.636Z,53.85
2017-09-30T20:35:01.604Z,54.10
2017-09-30T20:37:29.269Z,54.21
2017-09-30T20:39:56.857Z,54.15
2017-09-30T20:42:24.444Z,54.33
2017-09-30T20:44:52.078Z,54.59
2017-09-30T20:47:19.663Z,54.37
2017-09-30T20:49:47.588Z,54.45
2017-09-30T20:52:15.563Z,54.49
2017-09-30T20:54:43.182Z,54.79
2017-09-30T20:57:10.786Z,54.95
2017-09-30T20:59:38.421Z,54.83
2017-09-30T21:02:06.027Z,54.70
2017-09-30T21:04:33.628Z,55.03
2017-09-30T21:07:01.267Z,55.07
2017-09-30T21:09:28.859Z,55.13
2017-09-30T21:11:56.456Z,55.23
2017-09-30T21:14:24.085Z,55.52
2017-09-30T21:16:52.082Z,55.20
2017-09-30T21:19:19.678Z,55.55
2017-09-30T21:21:47.316Z,55.56
2017-09-30T21:24:14.910Z,55.85
2017-09-30T21:26:42.505Z,55.77
2017-09-30T21:29:10.506Z,55.73
2017-09-30T21:31:39.137Z,55.69
2017-09-30T21:34:06.731Z,55.66
2017-09-30T21:36:34.358Z,55.75
2017-09-30T21:39:01.948Z,55.86
2017-09-30T21:41:29.537Z,55.81
2017-09-30T21:43:57.165Z,55.95
2017-09-30T21:46:25.061Z,56.08
2017-09-30T21:48:52.673Z,56.20
2017-09-30T21:51:20.298Z,56.02
2017-09-30T21:53:47.878Z,55.77
2017-09-30T21:56:15.475Z,55.88
2017-09-30T21:58:43.108Z,55.86
2017-09-30T22:01:10.708Z,56.05
2017-09-30T22:03:38.312Z,56.22
2017-09-30T22:06:05.943Z,56.46
2017-09-30T22:08:33.532Z,56.29
2017-09-30T22:11:01.398Z,56.55
2017-09-30T22:13:29.363Z,56.14
2017-09-30T22:15:56.964Z,56.12
2017-09-30T22:18:24.565Z,56.13
2017-09-30T22:20:52.192Z,56.54
2017-09-30T22:23:19.809Z,56.62
2017-09-30T22:25:47.408Z,56.46
2017-09-30T22:28:15.040Z,56.67
2017-09-30T22:30:42.630Z,56.59
2017-09-30T22:33:10.228Z,56.82
2017-09-30T22:35:37.863Z,57.10
2017-09-30T22:38:05.460Z,57.58
2017-09-30T22:40:33.056Z,57.59
2017-09-30T22:43:00.730Z,57.34
2017-09-30T22:45:28.331Z,57.49
2017-09-30T22:47:55.922Z,57.42
2017-09-30T22:50:23.552Z,57.37
2017-09-30T22:52:51.212Z,57.57
2017-09-30T22:55:18.800Z,57.41
2017-09-30T22:57:46.420Z,57.54
2017-09-30T23:00:14.015Z,57.79
2017-09-30T23:02:41.605Z,57.71
2017-09-30T23:05:09.568Z,57.62
2017-09-30T23:07:37.191Z,57.91
2017-09-30T23:10:04.774Z,58.04
2017-09-30T23:12:32.393Z,57.96
2017-09-30T23:15:00.835Z,57.84
2017-09-30T23:17:28.698Z,58.15
2017-09-30T23:19:56.361Z,58.27
2017-09-30T23:22:23.963Z,58.39
2017-09-30T23:24:51.547Z,58.33
2017-09-30T23:27:19.197Z,57.99
2017-09-30T23:29:46.784Z,58.05
2017-09-30T23:32:14.375Z,58.14
2017-09-30T23:34:41.995Z,58.21
2017-09-30T23:37:09.583Z,58.21
2017-09-30T23:39:37.184Z,58.33
2017-09-30T23:42:05.124Z,58.24
2017-09-30T23:44:32.719Z,58.59
2017-09-30T23:47:00.303Z,58.36
2017-09-30T23:49:28.216Z,58.50
2017-09-30T23:51:55.809Z,58.62
2017-09-30T23:54:23.394Z,58.65
2017-09-30T23:56:51.073Z,58.81
2017-09-30T23:59:18.690Z,59.25
